createdAt,value
2022-12-01T00:01:10.186Z,8.00
2022-12-01T00:03:37.537Z,8.00
2022-12-01T00:06:16.233Z,8.00
2022-12-01T00:09:04.637Z,8.00
2022-12-01T00:11:32.236Z,8.00
2022-12-01T00:13:59.275Z,8.00
2022-12-01T00:16:26.117Z,8.00
2022-12-01T00:18:53.830Z,8.00
2022-12-01T00:21:22.862Z,7.90
2022-12-01T00:23:53.159Z,7.90
2022-12-01T00:26:21.077Z,8.00
2022-12-01T00:28:56.434Z,7.90
2022-12-01T00:31:23.948Z,7.90
2022-12-01T00:33:51.012Z,8.00
2022-12-01T00:36:18.230Z,8.00
2022-12-01T00:38:45.316Z,7.90
2022-12-01T00:41:12.310Z,7.90
2022-12-01T00:43:40.318Z,8.00
2022-12-01T00:46:07.302Z,7.90
2022-12-01T00:48:34.260Z,7.90
2022-12-01T00:51:01.144Z,7.90
2022-12-01T00:53:27.891Z,7.90
2022-12-01T00:55:55.180Z,7.90
2022-12-01T00:58:23.308Z,7.90
2022-12-01T01:00:56.984Z,7.90
2022-12-01T01:03:23.740Z,7.90
2022-12-01T01:08:17.802Z,7.90
2022-12-01T01:10:47.220Z,7.90
2022-12-01T01:13:15.251Z,7.90
2022-12-01T01:15:42.047Z,7.90
2022-12-01T01:18:10.152Z,7.90
2022-12-01T01:20:37.425Z,7.90
2022-12-01T01:23:04.308Z,7.90
2022-12-01T01:25:33.141Z,7.90
2022-12-01T01:27:59.998Z,7.90
2022-12-01T01:30:26.849Z,8.00
2022-12-01T01:32:53.688Z,8.00
2022-12-01T01:35:20.507Z,7.90
2022-12-01T01:37:47.312Z,7.80
2022-12-01T01:40:14.089Z,7.80
2022-12-01T01:42:40.835Z,7.80
2022-12-01T01:45:22.326Z,7.80
2022-12-01T01:47:51.416Z,7.80
2022-12-01T01:50:22.775Z,7.80
2022-12-01T01:53:03.099Z,7.80
2022-12-01T01:55:31.934Z,7.80
2022-12-01T01:57:59.415Z,7.80
2022-12-01T02:00:26.261Z,7.80
2022-12-01T02:02:53.893Z,7.80
2022-12-01T02:05:26.944Z,7.80
2022-12-01T02:07:57.273Z,7.80
2022-12-01T02:10:56.821Z,7.80
2022-12-01T02:13:46.874Z,7.80
2022-12-01T02:16:24.235Z,7.80
2022-12-01T02:18:57.326Z,7.80
2022-12-01T02:21:45.508Z,7.80
2022-12-01T02:24:21.012Z,7.90
2022-12-01T02:27:01.161Z,7.90
2022-12-01T02:29:57.164Z,7.90
2022-12-01T02:32:48.330Z,7.90
2022-12-01T02:35:20.937Z,7.90
2022-12-01T02:38:13.029Z,7.80
2022-12-01T02:40:58.136Z,7.70
2022-12-01T02:43:43.770Z,7.80
2022-12-01T02:46:39.522Z,7.80
2022-12-01T02:49:15.275Z,7.70
2022-12-01T02:51:44.850Z,7.70
2022-12-01T02:54:14.263Z,7.80
2022-12-01T02:56:43.692Z,7.70
2022-12-01T02:59:15.250Z,7.70
2022-12-01T03:02:24.780Z,7.70
2022-12-01T03:05:18.762Z,7.70
2022-12-01T03:08:13.627Z,7.70
2022-12-01T03:10:48.411Z,7.70
2022-12-01T03:13:18.191Z,7.80
2022-12-01T03:16:22.248Z,7.80
2022-12-01T03:19:00.320Z,7.80
2022-12-01T03:21:32.338Z,7.80
2022-12-01T03:24:06.536Z,7.70
2022-12-01T03:26:36.332Z,7.70
2022-12-01T03:29:23.781Z,7.80
2022-12-01T03:32:17.174Z,7.80
2022-12-01T03:35:29.293Z,7.70
2022-12-01T03:38:02.720Z,7.70
2022-12-01T03:40:30.993Z,7.70
2022-12-01T03:43:07.451Z,7.70
2022-12-01T03:45:50.919Z,7.70
2022-12-01T03:48:18.372Z,7.70
2022-12-01T03:51:18.270Z,7.70
2022-12-01T03:54:01.612Z,7.70
2022-12-01T03:56:33.877Z,7.70
2022-12-01T03:59:03.001Z,7.70
2022-12-01T04:01:36.654Z,7.60
2022-12-01T04:04:09.686Z,7.70
2022-12-01T04:06:36.746Z,7.60
2022-12-01T04:09:04.432Z,7.60
2022-12-01T04:11:49.837Z,7.60
2022-12-01T04:14:16.659Z,7.60
2022-12-01T04:16:43.492Z,7.60
2022-12-01T04:19:11.674Z,7.60
2022-12-01T04:21:38.451Z,7.60
2022-12-01T04:24:05.395Z,7.60
2022-12-01T04:26:35.322Z,7.60
2022-12-01T04:29:07.114Z,7.60
2022-12-01T04:31:34.276Z,7.60
2022-12-01T04:34:01.556Z,7.60
2022-12-01T04:36:31.717Z,7.60
2022-12-01T04:38:58.664Z,7.60
2022-12-01T04:41:25.712Z,7.70
2022-12-01T04:43:56.230Z,7.60
2022-12-01T04:46:24.613Z,7.60
2022-12-01T04:48:52.236Z,7.60
2022-12-01T04:51:19.302Z,7.60
2022-12-01T04:53:46.274Z,7.70
2022-12-01T04:56:13.061Z,7.60
2022-12-01T04:58:41.074Z,7.70
2022-12-01T05:01:12.213Z,7.60
2022-12-01T05:03:45.081Z,7.60
2022-12-01T05:06:15.968Z,7.60
2022-12-01T05:08:42.846Z,7.50
2022-12-01T05:11:11.998Z,7.40
2022-12-01T05:13:43.535Z,7.50
2022-12-01T05:16:15.663Z,7.40
2022-12-01T05:18:42.695Z,7.50
2022-12-01T05:21:11.195Z,7.50
2022-12-01T05:23:39.094Z,7.50
2022-12-01T05:26:08.365Z,7.50
2022-12-01T05:28:35.547Z,7.50
2022-12-01T05:31:02.962Z,7.40
2022-12-01T05:33:31.194Z,7.40
2022-12-01T05:35:58.068Z,7.40
2022-12-01T05:38:24.933Z,7.40
2022-12-01T05:40:53.776Z,7.30
2022-12-01T05:43:28.325Z,7.30
2022-12-01T05:45:56.137Z,7.30
2022-12-01T05:48:23.233Z,7.30
2022-12-01T05:50:49.996Z,7.20
2022-12-01T05:53:17.625Z,7.20
2022-12-01T05:55:44.582Z,7.20
2022-12-01T05:58:13.427Z,7.10
2022-12-01T06:00:45.968Z,7.10
2022-12-01T06:03:13.910Z,7.20
2022-12-01T06:05:41.363Z,7.00
2022-12-01T06:08:08.343Z,7.00
2022-12-01T06:10:35.612Z,7.00
2022-12-01T06:13:02.474Z,7.00
2022-12-01T06:15:29.555Z,6.90
2022-12-01T06:17:59.516Z,6.90
2022-12-01T06:20:26.860Z,6.90
2022-12-01T06:22:54.209Z,6.80
2022-12-01T06:25:21.129Z,6.80
2022-12-01T06:27:48.071Z,6.80
2022-12-01T06:30:14.978Z,6.70
2022-12-01T06:32:41.677Z,6.70
2022-12-01T06:35:08.717Z,6.60
2022-12-01T06:37:35.640Z,6.60
2022-12-01T06:40:02.495Z,6.60
2022-12-01T06:42:30.645Z,6.50
2022-12-01T06:44:57.444Z,6.50
2022-12-01T06:47:24.276Z,6.50
2022-12-01T06:49:51.490Z,6.50
2022-12-01T06:52:18.623Z,6.50
2022-12-01T06:54:45.472Z,6.40
2022-12-01T06:57:12.701Z,6.30
2022-12-01T06:59:39.823Z,6.30
2022-12-01T07:02:06.920Z,6.30
2022-12-01T07:04:33.751Z,6.30
2022-12-01T07:07:00.474Z,6.30
2022-12-01T07:09:27.371Z,6.20
2022-12-01T07:11:54.516Z,6.20
2022-12-01T07:14:24.913Z,6.20
2022-12-01T07:16:51.932Z,6.20
2022-12-01T07:19:19.285Z,6.20
2022-12-01T07:21:46.133Z,6.00
2022-12-01T07:24:12.965Z,6.10
2022-12-01T07:26:41.252Z,6.00
2022-12-01T07:29:11.403Z,6.00
2022-12-01T07:31:38.998Z,6.10
2022-12-01T07:34:06.404Z,6.00
2022-12-01T07:36:33.531Z,5.90
2022-12-01T07:39:04.639Z,5.90
2022-12-01T07:41:31.481Z,5.90
2022-12-01T07:43:58.392Z,5.90
2022-12-01T07:46:26.930Z,5.80
2022-12-01T07:48:55.288Z,5.90
2022-12-01T07:51:23.481Z,5.90
2022-12-01T07:53:51.831Z,5.90
2022-12-01T07:56:19.968Z,5.90
2022-12-01T07:58:47.009Z,5.90
2022-12-01T08:01:19.666Z,5.90
2022-12-01T08:03:48.913Z,6.00
2022-12-01T08:06:17.333Z,5.90
2022-12-01T08:08:44.544Z,5.90
2022-12-01T08:11:15.553Z,5.90
2022-12-01T08:13:43.352Z,5.90
2022-12-01T08:16:16.107Z,6.00
2022-12-01T08:18:44.072Z,5.90
2022-12-01T08:21:16.692Z,5.90
2022-12-01T08:23:43.777Z,5.90
2022-12-01T08:26:19.140Z,5.90
2022-12-01T08:28:46.586Z,5.90
2022-12-01T08:31:19.835Z,6.00
2022-12-01T08:33:48.253Z,5.90
2022-12-01T08:36:15.713Z,6.00
2022-12-01T08:38:46.904Z,6.00
2022-12-01T08:41:15.192Z,5.90
2022-12-01T08:44:00.053Z,5.90
2022-12-01T08:46:29.421Z,5.90
2022-12-01T08:48:57.733Z,5.90
2022-12-01T08:51:25.502Z,5.90
2022-12-01T08:53:52.502Z,5.90
2022-12-01T08:56:25.564Z,5.90
2022-12-01T08:58:53.929Z,6.00
2022-12-01T09:01:21.212Z,6.00
2022-12-01T09:03:48.194Z,6.00
2022-12-01T09:06:17.716Z,6.10
2022-12-01T09:08:44.763Z,6.00
2022-12-01T09:11:28.785Z,5.90
2022-12-01T09:13:55.551Z,6.00
2022-12-01T09:16:22.413Z,6.00
2022-12-01T09:18:49.277Z,6.10
2022-12-01T09:21:24.989Z,6.20
2022-12-01T09:23:52.441Z,6.20
2022-12-01T09:26:20.260Z,6.10
2022-12-01T09:28:49.213Z,6.10
2022-12-01T09:31:18.640Z,6.00
2022-12-01T09:33:47.927Z,6.00
2022-12-01T09:36:14.949Z,6.00
2022-12-01T09:38:44.003Z,6.00
2022-12-01T09:41:27.090Z,6.10
2022-12-01T09:44:01.480Z,6.20
2022-12-01T09:46:41.410Z,6.10
2022-12-01T09:49:18.444Z,6.10
2022-12-01T09:51:45.585Z,6.10
2022-12-01T09:54:14.413Z,6.10
2022-12-01T09:56:53.423Z,6.10
2022-12-01T09:59:24.657Z,6.10
2022-12-01T10:01:58.489Z,6.20
2022-12-01T10:04:42.807Z,6.30
2022-12-01T10:07:21.190Z,6.20
2022-12-01T10:09:59.712Z,6.10
2022-12-01T10:12:30.955Z,6.10
2022-12-01T10:15:24.991Z,6.10
2022-12-01T10:18:10.837Z,6.00
2022-12-01T10:20:50.842Z,5.90
2022-12-01T10:23:37.832Z,5.90
2022-12-01T10:26:17.073Z,5.90
2022-12-01T10:28:46.921Z,5.90
2022-12-01T10:31:21.385Z,6.00
2022-12-01T10:34:04.276Z,5.90
2022-12-01T10:36:32.689Z,5.80
2022-12-01T10:39:00.446Z,5.80
2022-12-01T10:41:30.849Z,5.80
2022-12-01T10:44:01.027Z,5.90
2022-12-01T10:46:50.879Z,5.90
2022-12-01T10:49:19.360Z,6.00
2022-12-01T10:51:57.752Z,6.00
2022-12-01T10:54:41.304Z,5.90
2022-12-01T10:57:15.712Z,5.80
2022-12-01T10:59:53.640Z,5.80
2022-12-01T11:02:26.861Z,5.80
2022-12-01T11:05:02.659Z,6.00
2022-12-01T11:07:33.978Z,5.80
2022-12-01T11:10:06.835Z,5.90
2022-12-01T11:12:34.760Z,5.90
2022-12-01T11:15:02.395Z,5.80
2022-12-01T11:17:35.143Z,5.80
2022-12-01T11:20:33.051Z,5.70
2022-12-01T11:23:21.160Z,5.60
2022-12-01T11:26:10.472Z,5.70
2022-12-01T11:28:52.193Z,5.60
2022-12-01T11:31:20.687Z,5.60
2022-12-01T11:33:53.808Z,5.70
2022-12-01T11:36:34.460Z,5.70
2022-12-01T11:39:02.250Z,5.70
2022-12-01T11:41:37.500Z,5.80
2022-12-01T11:44:22.359Z,5.80
2022-12-01T11:47:01.655Z,5.70
2022-12-01T11:49:47.280Z,5.60
2022-12-01T11:52:28.636Z,5.60
2022-12-01T11:55:05.573Z,5.50
2022-12-01T11:57:37.563Z,5.50
2022-12-01T12:00:22.823Z,5.70
2022-12-01T12:03:16.807Z,5.50
2022-12-01T12:06:11.713Z,5.60
2022-12-01T12:08:51.771Z,5.60
2022-12-01T12:11:20.552Z,5.70
2022-12-01T12:13:59.425Z,5.60
2022-12-01T12:16:45.013Z,5.70
2022-12-01T12:20:06.291Z,5.70
2022-12-01T12:22:57.476Z,5.60
2022-12-01T12:25:52.850Z,5.60
2022-12-01T12:28:43.509Z,5.70
2022-12-01T12:31:35.003Z,5.70
2022-12-01T12:34:26.162Z,5.60
2022-12-01T12:37:20.827Z,5.60
2022-12-01T12:39:47.915Z,5.60
2022-12-01T12:42:49.830Z,5.50
2022-12-01T12:45:38.202Z,5.50
2022-12-01T12:48:13.882Z,5.50
2022-12-01T12:50:51.263Z,5.40
2022-12-01T12:53:21.978Z,5.50
2022-12-01T12:55:52.963Z,5.50
2022-12-01T12:58:25.463Z,5.30
2022-12-01T13:00:59.854Z,5.30
2022-12-01T13:03:43.171Z,5.30
2022-12-01T13:06:24.718Z,5.30
2022-12-01T13:08:59.184Z,5.30
2022-12-01T13:11:49.866Z,5.30
2022-12-01T13:14:29.415Z,5.30
2022-12-01T13:17:15.863Z,5.30
2022-12-01T13:19:43.888Z,5.30
2022-12-01T13:22:13.271Z,5.30
2022-12-01T13:24:40.560Z,5.40
2022-12-01T13:27:20.726Z,5.40
2022-12-01T13:29:50.518Z,5.30
2022-12-01T13:32:43.189Z,5.40
2022-12-01T13:35:25.706Z,5.40
2022-12-01T13:37:53.222Z,5.40
2022-12-01T13:40:22.549Z,5.40
2022-12-01T13:43:21.055Z,5.50
2022-12-01T13:45:49.744Z,5.20
2022-12-01T13:48:39.454Z,5.30
2022-12-01T13:51:07.045Z,5.20
2022-12-01T13:53:37.853Z,5.30
2022-12-01T13:56:16.679Z,5.30
2022-12-01T13:58:49.664Z,5.20
2022-12-01T14:01:23.245Z,5.20
2022-12-01T14:04:11.910Z,5.20
2022-12-01T14:06:50.450Z,5.20
2022-12-01T14:09:21.534Z,5.20
2022-12-01T14:12:11.316Z,5.20
2022-12-01T14:14:42.443Z,5.10
2022-12-01T14:17:31.565Z,5.10
2022-12-01T14:20:08.780Z,5.00
2022-12-01T14:22:40.742Z,5.00
2022-12-01T14:25:22.872Z,5.10
2022-12-01T14:27:53.151Z,5.20
2022-12-01T14:30:38.651Z,5.10
2022-12-01T14:33:39.509Z,5.10
2022-12-01T14:36:29.511Z,5.10
2022-12-01T14:39:05.519Z,5.10
2022-12-01T14:41:39.009Z,5.00
2022-12-01T14:44:27.568Z,5.00
2022-12-01T14:47:10.901Z,5.00
2022-12-01T14:49:52.470Z,5.10
2022-12-01T14:52:47.835Z,5.00
2022-12-01T14:55:22.209Z,5.00
2022-12-01T14:57:51.100Z,4.90
2022-12-01T15:00:21.344Z,4.90
2022-12-01T15:03:18.725Z,4.90
2022-12-01T15:05:45.950Z,4.90
2022-12-01T15:08:53.447Z,4.80
2022-12-01T15:11:26.104Z,4.80
2022-12-01T15:13:55.702Z,4.80
2022-12-01T15:16:25.811Z,4.80
2022-12-01T15:18:53.903Z,4.80
2022-12-01T15:21:30.498Z,4.80
2022-12-01T15:24:00.252Z,4.80
2022-12-01T15:26:31.643Z,4.80
2022-12-01T15:29:05.494Z,4.80
2022-12-01T15:31:34.008Z,4.80
2022-12-01T15:34:01.211Z,4.70
2022-12-01T15:36:28.329Z,4.80
2022-12-01T15:38:55.723Z,4.70
2022-12-01T15:41:31.516Z,4.70
2022-12-01T15:44:03.510Z,4.70
2022-12-01T15:46:32.794Z,4.70
2022-12-01T15:49:20.888Z,4.70
2022-12-01T15:51:50.285Z,4.70
2022-12-01T15:54:27.409Z,4.70
2022-12-01T15:56:57.109Z,4.70
2022-12-01T15:59:44.554Z,4.70
2022-12-01T16:02:20.865Z,4.70
2022-12-01T16:04:49.759Z,4.70
2022-12-01T16:07:16.944Z,4.70
2022-12-01T16:09:56.433Z,4.70
2022-12-01T16:12:26.138Z,4.70
2022-12-01T16:15:06.966Z,4.60
2022-12-01T16:17:48.355Z,4.60
2022-12-01T16:20:35.700Z,4.60
2022-12-01T16:23:09.403Z,4.60
2022-12-01T16:25:42.318Z,4.60
2022-12-01T16:28:33.113Z,4.50
2022-12-01T16:31:00.692Z,4.50
2022-12-01T16:33:29.120Z,4.60
2022-12-01T16:35:59.058Z,4.60
2022-12-01T16:38:28.987Z,4.60
2022-12-01T16:40:59.382Z,4.50
2022-12-01T16:43:27.945Z,4.50
2022-12-01T16:46:03.312Z,4.60
2022-12-01T16:48:31.239Z,4.60
2022-12-01T16:51:03.181Z,4.60
2022-12-01T16:53:30.022Z,4.50
2022-12-01T16:55:59.201Z,4.40
2022-12-01T16:58:26.576Z,4.40
2022-12-01T17:00:53.656Z,4.50
2022-12-01T17:03:23.606Z,4.50
2022-12-01T17:05:51.693Z,4.40
2022-12-01T17:08:18.859Z,4.40
2022-12-01T17:10:49.532Z,4.40
2022-12-01T17:13:17.381Z,4.40
2022-12-01T17:15:47.457Z,4.50
2022-12-01T17:18:16.228Z,4.40
2022-12-01T17:20:43.640Z,4.40
2022-12-01T17:23:11.548Z,4.40
2022-12-01T17:25:42.145Z,4.40
2022-12-01T17:28:09.016Z,4.30
2022-12-01T17:30:36.692Z,4.40
2022-12-01T17:33:03.591Z,4.40
2022-12-01T17:35:30.480Z,4.40
2022-12-01T17:37:57.261Z,4.30
2022-12-01T17:40:24.716Z,4.30
2022-12-01T17:42:51.635Z,4.30
2022-12-01T17:45:19.176Z,4.30
2022-12-01T17:47:46.240Z,4.20
2022-12-01T17:50:13.347Z,4.20
2022-12-01T17:52:40.469Z,4.20
2022-12-01T17:55:08.225Z,4.10
2022-12-01T17:57:35.163Z,4.10
2022-12-01T18:00:02.771Z,4.10
2022-12-01T18:02:29.701Z,4.10
2022-12-01T18:04:56.526Z,4.00
2022-12-01T18:07:23.554Z,4.10
2022-12-01T18:09:50.438Z,4.10
2022-12-01T18:12:17.203Z,4.10
2022-12-01T18:14:44.027Z,4.10
2022-12-01T18:17:10.895Z,4.10
2022-12-01T18:19:37.766Z,4.10
2022-12-01T18:22:04.725Z,4.10
2022-12-01T18:24:31.565Z,4.10
2022-12-01T18:26:59.100Z,4.10
2022-12-01T18:29:26.246Z,4.00
2022-12-01T18:31:57.593Z,4.00
2022-12-01T18:34:25.602Z,4.00
2022-12-01T18:36:52.824Z,4.00
2022-12-01T18:39:19.641Z,4.00
2022-12-01T18:41:46.629Z,4.00
2022-12-01T18:44:13.833Z,4.00
2022-12-01T18:46:40.824Z,3.90
2022-12-01T18:49:09.489Z,3.90
2022-12-01T18:51:38.105Z,3.90
2022-12-01T18:54:06.844Z,3.90
2022-12-01T18:56:34.232Z,4.00
2022-12-01T18:59:04.939Z,3.80
2022-12-01T19:01:46.065Z,3.80
2022-12-01T19:04:14.618Z,3.80
2022-12-01T19:06:42.492Z,3.80
2022-12-01T19:09:11.217Z,3.90
2022-12-01T19:11:40.484Z,3.80
2022-12-01T19:14:11.548Z,3.80
2022-12-01T19:16:39.861Z,3.90
2022-12-01T19:19:06.691Z,3.90
2022-12-01T19:21:33.541Z,3.80
2022-12-01T19:24:00.291Z,3.90
2022-12-01T19:26:27.304Z,3.80
2022-12-01T19:28:54.114Z,3.80
2022-12-01T19:31:23.713Z,3.80
2022-12-01T19:33:50.906Z,3.80
2022-12-01T19:36:21.680Z,3.90
2022-12-01T19:38:48.792Z,3.80
2022-12-01T19:41:16.596Z,3.80
2022-12-01T19:43:43.793Z,3.90
2022-12-01T19:46:16.988Z,3.80
2022-12-01T19:48:44.758Z,3.90
2022-12-01T19:51:23.495Z,3.80
2022-12-01T19:53:51.346Z,3.80
2022-12-01T19:56:18.494Z,3.70
2022-12-01T19:58:45.587Z,3.80
2022-12-01T20:01:15.521Z,3.70
2022-12-01T20:03:45.179Z,3.80
2022-12-01T20:06:14.688Z,3.80
2022-12-01T20:08:41.980Z,3.80
2022-12-01T20:11:09.444Z,3.80
2022-12-01T20:13:38.911Z,3.70
2022-12-01T20:16:11.823Z,3.80
2022-12-01T20:18:39.939Z,3.70
2022-12-01T20:21:17.610Z,3.80
2022-12-01T20:23:47.146Z,3.80
2022-12-01T20:26:16.113Z,3.80
2022-12-01T20:28:44.107Z,3.90
2022-12-01T20:31:25.363Z,3.90
2022-12-01T20:33:55.328Z,3.80
2022-12-01T20:36:22.823Z,3.80
2022-12-01T20:38:49.744Z,3.80
2022-12-01T20:41:17.437Z,3.80
2022-12-01T20:43:44.585Z,3.80
2022-12-01T20:46:12.937Z,3.80
2022-12-01T20:48:40.387Z,3.70
2022-12-01T20:51:09.083Z,3.80
2022-12-01T20:53:36.467Z,3.80
2022-12-01T20:56:08.689Z,3.80
2022-12-01T20:58:38.000Z,3.80
2022-12-01T21:01:16.347Z,3.80
2022-12-01T21:03:45.273Z,3.80
2022-12-01T21:06:13.791Z,3.80
2022-12-01T21:08:42.431Z,3.80
2022-12-01T21:11:41.701Z,3.80
2022-12-01T21:14:41.243Z,3.70
2022-12-01T21:17:32.543Z,3.70
2022-12-01T21:20:13.025Z,3.70
2022-12-01T21:22:40.088Z,3.80
2022-12-01T21:25:16.203Z,3.80
2022-12-01T21:27:43.026Z,3.70
2022-12-01T21:30:17.824Z,3.70
2022-12-01T21:32:45.246Z,3.80
2022-12-01T21:35:24.823Z,3.80
2022-12-01T21:37:58.427Z,3.70
2022-12-01T21:40:27.060Z,3.80
2022-12-01T21:42:53.957Z,3.90
2022-12-01T21:45:28.021Z,3.90
2022-12-01T21:48:06.239Z,3.80
2022-12-01T21:50:33.002Z,3.80
2022-12-01T21:52:59.762Z,3.80
2022-12-01T21:55:26.607Z,3.70
2022-12-01T21:57:54.170Z,3.70
2022-12-01T22:00:35.351Z,3.80
2022-12-01T22:03:08.353Z,3.80
2022-12-01T22:05:55.837Z,3.70
2022-12-01T22:08:34.308Z,3.70
2022-12-01T22:11:16.253Z,3.60
2022-12-01T22:13:50.696Z,3.70
2022-12-01T22:16:27.584Z,3.70
2022-12-01T22:19:01.313Z,3.70
2022-12-01T22:21:38.082Z,3.60
2022-12-01T22:24:10.894Z,3.60
2022-12-01T22:26:40.985Z,3.70
2022-12-01T22:29:29.642Z,3.70
2022-12-01T22:32:13.523Z,3.70
2022-12-01T22:34:49.338Z,3.80
2022-12-01T22:37:21.958Z,3.70
2022-12-01T22:39:54.075Z,3.70
2022-12-01T22:42:33.226Z,3.80
2022-12-01T22:45:22.083Z,3.80
2022-12-01T22:47:48.900Z,3.80
2022-12-01T22:50:27.978Z,3.70
2022-12-01T22:53:00.105Z,3.70
2022-12-01T22:55:26.922Z,3.70
2022-12-01T22:57:54.623Z,3.80
2022-12-01T23:00:23.215Z,3.80
2022-12-01T23:02:52.262Z,3.80
2022-12-01T23:05:30.709Z,3.80
2022-12-01T23:07:57.763Z,3.70
2022-12-01T23:10:28.946Z,3.70
2022-12-01T23:13:00.328Z,3.70
2022-12-01T23:15:33.783Z,3.70
2022-12-01T23:18:16.552Z,3.80
2022-12-01T23:20:46.109Z,3.80
2022-12-01T23:23:16.711Z,3.80
2022-12-01T23:25:44.615Z,3.80
2022-12-01T23:28:13.290Z,3.70
2022-12-01T23:30:43.433Z,3.70
2022-12-01T23:33:28.525Z,3.70
2022-12-01T23:36:00.412Z,3.70
2022-12-01T23:38:39.444Z,3.70
2022-12-01T23:41:33.605Z,3.70
2022-12-01T23:44:22.586Z,3.70
2022-12-01T23:46:55.110Z,3.70
2022-12-01T23:49:27.566Z,3.70
2022-12-01T23:51:56.025Z,3.60
2022-12-01T23:54:34.653Z,3.60
2022-12-01T23:57:09.147Z,3.60
2022-12-01T23:59:38.188Z,3.60
